sensor_id;sensor_type;location;lat;lon;timestamp;P1;durP1;ratioP1;P2;durP2;ratioP2
2021;SDS011;1015;49.756;6.994;2022-07-22T00:00:12;19.47;;;17.57;;
2021;SDS011;1015;49.756;6.994;2022-07-22T00:02:40;20.50;;;18.00;;
2021;SDS011;1015;49.756;6.994;2022-07-22T00:05:08;22.53;;;18.57;;
2021;SDS011;1015;49.756;6.994;2022-07-22T00:07:36;18.40;;;16.47;;
2021;SDS011;1015;49.756;6.994;2022-07-22T00:10:03;19.00;;;17.10;;
2021;SDS011;1015;49.756;6.994;2022-07-22T00:12:33;19.77;;;17.63;;
2021;SDS011;1015;49.756;6.994;2022-07-22T00:15:00;20.37;;;17.73;;
2021;SDS011;1015;49.756;6.994;2022-07-22T00:17:27;20.53;;;16.97;;
2021;SDS011;1015;49.756;6.994;2022-07-22T00:19:54;18.40;;;16.10;;
2021;SDS011;1015;49.756;6.994;2022-07-22T00:22:21;20.33;;;18.23;;
2021;SDS011;1015;49.756;6.994;2022-07-22T00:24:48;19.77;;;17.77;;
2021;SDS011;1015;49.756;6.994;2022-07-22T00:27:15;19.67;;;17.47;;
2021;SDS011;1015;49.756;6.994;2022-07-22T00:29:43;19.77;;;17.57;;
2021;SDS011;1015;49.756;6.994;2022-07-22T00:32:10;20.77;;;18.00;;
2021;SDS011;1015;49.756;6.994;2022-07-22T00:34:37;22.83;;;18.90;;
2021;SDS011;1015;49.756;6.994;2022-07-22T00:37:04;22.13;;;19.43;;
2021;SDS011;1015;49.756;6.994;2022-07-22T00:39:31;24.10;;;20.13;;
2021;SDS011;1015;49.756;6.994;2022-07-22T00:41:58;22.43;;;20.03;;
2021;SDS011;1015;49.756;6.994;2022-07-22T00:44:25;21.77;;;18.70;;
2021;SDS011;1015;49.756;6.994;2022-07-22T00:46:54;22.50;;;19.73;;
2021;SDS011;1015;49.756;6.994;2022-07-22T00:49:21;22.93;;;19.80;;
2021;SDS011;1015;49.756;6.994;2022-07-22T00:51:48;21.07;;;18.30;;
2021;SDS011;1015;49.756;6.994;2022-07-22T00:54:15;21.47;;;19.13;;
2021;SDS011;1015;49.756;6.994;2022-07-22T00:56:42;24.13;;;21.20;;
2021;SDS011;1015;49.756;6.994;2022-07-22T00:59:10;22.83;;;19.67;;
2021;SDS011;1015;49.756;6.994;2022-07-22T01:01:38;22.50;;;19.10;;
2021;SDS011;1015;49.756;6.994;2022-07-22T01:04:06;28.60;;;20.93;;
2021;SDS011;1015;49.756;6.994;2022-07-22T01:06:34;23.30;;;19.90;;
2021;SDS011;1015;49.756;6.994;2022-07-22T01:09:01;22.80;;;19.80;;
2021;SDS011;1015;49.756;6.994;2022-07-22T01:11:28;20.90;;;18.70;;
2021;SDS011;1015;49.756;6.994;2022-07-22T01:13:55;23.60;;;19.53;;
2021;SDS011;1015;49.756;6.994;2022-07-22T01:16:23;21.70;;;19.47;;
2021;SDS011;1015;49.756;6.994;2022-07-22T01:18:50;24.37;;;21.73;;
2021;SDS011;1015;49.756;6.994;2022-07-22T01:21:19;25.67;;;21.30;;
2021;SDS011;1015;49.756;6.994;2022-07-22T01:23:46;24.63;;;22.03;;
2021;SDS011;1015;49.756;6.994;2022-07-22T01:26:14;26.50;;;22.60;;
2021;SDS011;1015;49.756;6.994;2022-07-22T01:28:41;27.27;;;21.73;;
2021;SDS011;1015;49.756;6.994;2022-07-22T01:31:08;26.00;;;22.80;;
2021;SDS011;1015;49.756;6.994;2022-07-22T01:33:35;28.20;;;23.17;;
2021;SDS011;1015;49.756;6.994;2022-07-22T01:36:03;25.60;;;22.20;;
2021;SDS011;1015;49.756;6.994;2022-07-22T01:38:32;26.30;;;21.70;;
2021;SDS011;1015;49.756;6.994;2022-07-22T01:40:59;27.27;;;22.53;;
2021;SDS011;1015;49.756;6.994;2022-07-22T01:43:26;27.67;;;22.70;;
2021;SDS011;1015;49.756;6.994;2022-07-22T01:45:53;27.10;;;22.40;;
2021;SDS011;1015;49.756;6.994;2022-07-22T01:48:21;25.97;;;23.23;;
2021;SDS011;1015;49.756;6.994;2022-07-22T01:50:48;27.73;;;21.93;;
2021;SDS011;1015;49.756;6.994;2022-07-22T01:53:15;24.33;;;21.43;;
2021;SDS011;1015;49.756;6.994;2022-07-22T01:55:44;31.00;;;22.30;;
2021;SDS011;1015;49.756;6.994;2022-07-22T01:58:11;26.23;;;21.90;;
2021;SDS011;1015;49.756;6.994;2022-07-22T02:00:38;25.20;;;22.50;;
2021;SDS011;1015;49.756;6.994;2022-07-22T02:03:05;27.90;;;21.43;;
2021;SDS011;1015;49.756;6.994;2022-07-22T02:05:32;27.00;;;21.40;;
2021;SDS011;1015;49.756;6.994;2022-07-22T02:08:00;24.77;;;19.80;;
2021;SDS011;1015;49.756;6.994;2022-07-22T02:10:28;25.60;;;20.30;;
2021;SDS011;1015;49.756;6.994;2022-07-22T02:12:57;25.47;;;19.70;;
2021;SDS011;1015;49.756;6.994;2022-07-22T02:15:24;26.37;;;21.07;;
2021;SDS011;1015;49.756;6.994;2022-07-22T02:17:52;24.90;;;20.33;;
2021;SDS011;1015;49.756;6.994;2022-07-22T02:20:19;25.87;;;21.83;;
2021;SDS011;1015;49.756;6.994;2022-07-22T02:22:46;27.50;;;22.00;;
2021;SDS011;1015;49.756;6.994;2022-07-22T02:25:13;22.87;;;19.70;;
2021;SDS011;1015;49.756;6.994;2022-07-22T02:27:40;24.33;;;20.00;;
2021;SDS011;1015;49.756;6.994;2022-07-22T02:30:10;26.70;;;20.03;;
2021;SDS011;1015;49.756;6.994;2022-07-22T02:32:43;29.27;;;21.43;;
2021;SDS011;1015;49.756;6.994;2022-07-22T02:35:10;30.37;;;23.43;;
2021;SDS011;1015;49.756;6.994;2022-07-22T02:37:37;28.03;;;21.40;;
2021;SDS011;1015;49.756;6.994;2022-07-22T02:40:05;27.57;;;22.60;;
2021;SDS011;1015;49.756;6.994;2022-07-22T02:42:33;29.53;;;22.13;;
2021;SDS011;1015;49.756;6.994;2022-07-22T02:45:00;33.00;;;22.33;;
2021;SDS011;1015;49.756;6.994;2022-07-22T02:47:29;31.60;;;23.73;;
2021;SDS011;1015;49.756;6.994;2022-07-22T02:49:56;29.23;;;22.57;;
2021;SDS011;1015;49.756;6.994;2022-07-22T02:52:23;25.63;;;21.03;;
2021;SDS011;1015;49.756;6.994;2022-07-22T02:54:50;31.30;;;21.27;;
2021;SDS011;1015;49.756;6.994;2022-07-22T02:57:17;30.77;;;21.77;;
2021;SDS011;1015;49.756;6.994;2022-07-22T02:59:44;27.43;;;21.30;;
2021;SDS011;1015;49.756;6.994;2022-07-22T03:02:11;32.70;;;22.23;;
2021;SDS011;1015;49.756;6.994;2022-07-22T03:04:39;33.30;;;22.23;;
2021;SDS011;1015;49.756;6.994;2022-07-22T03:07:06;28.17;;;20.97;;
2021;SDS011;1015;49.756;6.994;2022-07-22T03:09:33;28.60;;;20.60;;
2021;SDS011;1015;49.756;6.994;2022-07-22T03:12:00;28.33;;;21.23;;
2021;SDS011;1015;49.756;6.994;2022-07-22T03:14:27;28.27;;;21.37;;
2021;SDS011;1015;49.756;6.994;2022-07-22T03:16:54;26.57;;;20.47;;
2021;SDS011;1015;49.756;6.994;2022-07-22T03:19:21;25.90;;;19.80;;
2021;SDS011;1015;49.756;6.994;2022-07-22T03:21:49;28.00;;;19.83;;
2021;SDS011;1015;49.756;6.994;2022-07-22T03:24:16;27.40;;;20.10;;
2021;SDS011;1015;49.756;6.994;2022-07-22T03:26:43;24.43;;;18.33;;
2021;SDS011;1015;49.756;6.994;2022-07-22T03:29:10;25.50;;;19.63;;
2021;SDS011;1015;49.756;6.994;2022-07-22T03:31:37;25.63;;;19.07;;
2021;SDS011;1015;49.756;6.994;2022-07-22T03:34:04;26.03;;;19.40;;
2021;SDS011;1015;49.756;6.994;2022-07-22T03:36:31;21.93;;;17.47;;
2021;SDS011;1015;49.756;6.994;2022-07-22T03:39:00;27.10;;;19.47;;
2021;SDS011;1015;49.756;6.994;2022-07-22T03:41:27;24.43;;;17.43;;
2021;SDS011;1015;49.756;6.994;2022-07-22T03:43:54;26.83;;;19.97;;
2021;SDS011;1015;49.756;6.994;2022-07-22T03:46:21;23.40;;;18.07;;
2021;SDS011;1015;49.756;6.994;2022-07-22T03:48:48;23.20;;;18.33;;
2021;SDS011;1015;49.756;6.994;2022-07-22T03:51:15;23.00;;;18.13;;
2021;SDS011;1015;49.756;6.994;2022-07-22T03:53:42;23.97;;;18.70;;
2021;SDS011;1015;49.756;6.994;2022-07-22T03:56:10;26.40;;;18.80;;
2021;SDS011;1015;49.756;6.994;2022-07-22T03:58:37;25.77;;;19.03;;
2021;SDS011;1015;49.756;6.994;2022-07-22T04:01:04;27.10;;;20.10;;
2021;SDS011;1015;49.756;6.994;2022-07-22T04:03:31;25.20;;;19.07;;
2021;SDS011;1015;49.756;6.994;2022-07-22T04:05:59;30.47;;;20.50;;
2021;SDS011;1015;49.756;6.994;2022-07-22T04:08:26;26.73;;;20.87;;
2021;SDS011;1015;49.756;6.994;2022-07-22T04:10:53;26.80;;;20.23;;
2021;SDS011;1015;49.756;6.994;2022-07-22T04:13:21;26.43;;;20.70;;
2021;SDS011;1015;49.756;6.994;2022-07-22T04:15:48;23.20;;;18.73;;
2021;SDS011;1015;49.756;6.994;2022-07-22T04:18:15;24.57;;;20.27;;
2021;SDS011;1015;49.756;6.994;2022-07-22T04:20:42;23.90;;;19.63;;
2021;SDS011;1015;49.756;6.994;2022-07-22T04:23:09;25.53;;;21.33;;
2021;SDS011;1015;49.756;6.994;2022-07-22T04:25:36;24.70;;;19.57;;
2021;SDS011;1015;49.756;6.994;2022-07-22T04:28:03;26.70;;;19.30;;
2021;SDS011;1015;49.756;6.994;2022-07-22T04:30:32;23.77;;;21.13;;
2021;SDS011;1015;49.756;6.994;2022-07-22T04:32:59;25.80;;;19.70;;
2021;SDS011;1015;49.756;6.994;2022-07-22T04:35:26;25.40;;;19.50;;
2021;SDS011;1015;49.756;6.994;2022-07-22T04:37:53;23.70;;;20.10;;
2021;SDS011;1015;49.756;6.994;2022-07-22T04:40:19;27.00;;;20.80;;
2021;SDS011;1015;49.756;6.994;2022-07-22T04:42:46;22.50;;;19.13;;
2021;SDS011;1015;49.756;6.994;2022-07-22T04:45:13;25.83;;;19.20;;
2021;SDS011;1015;49.756;6.994;2022-07-22T04:47:42;23.30;;;18.93;;
2021;SDS011;1015;49.756;6.994;2022-07-22T04:50:09;22.37;;;18.17;;
2021;SDS011;1015;49.756;6.994;2022-07-22T04:52:36;20.30;;;17.50;;
2021;SDS011;1015;49.756;6.994;2022-07-22T04:55:03;18.87;;;16.97;;
2021;SDS011;1015;49.756;6.994;2022-07-22T04:57:30;18.97;;;15.83;;
2021;SDS011;1015;49.756;6.994;2022-07-22T04:59:57;17.57;;;15.87;;
2021;SDS011;1015;49.756;6.994;2022-07-22T05:02:24;16.23;;;14.53;;
2021;SDS011;1015;49.756;6.994;2022-07-22T05:04:52;16.80;;;14.50;;
2021;SDS011;1015;49.756;6.994;2022-07-22T05:07:19;16.80;;;13.37;;
2021;SDS011;1015;49.756;6.994;2022-07-22T05:09:46;15.07;;;12.87;;
2021;SDS011;1015;49.756;6.994;2022-07-22T05:12:13;12.83;;;11.33;;
2021;SDS011;1015;49.756;6.994;2022-07-22T05:14:40;14.47;;;12.07;;
2021;SDS011;1015;49.756;6.994;2022-07-22T05:17:09;11.93;;;10.83;;
2021;SDS011;1015;49.756;6.994;2022-07-22T05:19:37;12.63;;;11.33;;
2021;SDS011;1015;49.756;6.994;2022-07-22T05:22:06;13.40;;;12.10;;
2021;SDS011;1015;49.756;6.994;2022-07-22T05:24:33;13.00;;;11.73;;
2021;SDS011;1015;49.756;6.994;2022-07-22T05:27:00;12.87;;;10.43;;
2021;SDS011;1015;49.756;6.994;2022-07-22T05:29:28;12.50;;;11.20;;
2021;SDS011;1015;49.756;6.994;2022-07-22T05:31:55;11.70;;;10.50;;
2021;SDS011;1015;49.756;6.994;2022-07-22T05:34:22;13.93;;;11.50;;
2021;SDS011;1015;49.756;6.994;2022-07-22T05:36:49;11.27;;;10.00;;
2021;SDS011;1015;49.756;6.994;2022-07-22T05:39:17;14.20;;;10.13;;
2021;SDS011;1015;49.756;6.994;2022-07-22T05:41:44;11.40;;;10.07;;
2021;SDS011;1015;49.756;6.994;2022-07-22T05:44:11;12.20;;;9.60;;
2021;SDS011;1015;49.756;6.994;2022-07-22T05:46:38;12.73;;;9.63;;
2021;SDS011;1015;49.756;6.994;2022-07-22T05:49:05;10.70;;;9.57;;
2021;SDS011;1015;49.756;6.994;2022-07-22T05:51:32;10.17;;;9.23;;
2021;SDS011;1015;49.756;6.994;2022-07-22T05:53:59;9.87;;;9.00;;
2021;SDS011;1015;49.756;6.994;2022-07-22T05:56:29;11.40;;;10.30;;
2021;SDS011;1015;49.756;6.994;2022-07-22T05:58:56;9.63;;;8.73;;
2021;SDS011;1015;49.756;6.994;2022-07-22T06:01:23;11.00;;;9.30;;
2021;SDS011;1015;49.756;6.994;2022-07-22T06:03:50;11.20;;;9.10;;
2021;SDS011;1015;49.756;6.994;2022-07-22T06:06:17;10.60;;;9.37;;
2021;SDS011;1015;49.756;6.994;2022-07-22T06:08:44;10.17;;;9.20;;
2021;SDS011;1015;49.756;6.994;2022-07-22T06:11:11;9.97;;;8.97;;
2021;SDS011;1015;49.756;6.994;2022-07-22T06:13:39;10.20;;;9.30;;
2021;SDS011;1015;49.756;6.994;2022-07-22T06:16:06;10.47;;;9.47;;
2021;SDS011;1015;49.756;6.994;2022-07-22T06:18:33;9.00;;;8.20;;
2021;SDS011;1015;49.756;6.994;2022-07-22T06:21:00;11.70;;;9.27;;
2021;SDS011;1015;49.756;6.994;2022-07-22T06:23:27;10.00;;;8.80;;
2021;SDS011;1015;49.756;6.994;2022-07-22T06:25:54;9.70;;;8.70;;
2021;SDS011;1015;49.756;6.994;2022-07-22T06:28:21;9.80;;;8.90;;
2021;SDS011;1015;49.756;6.994;2022-07-22T06:30:50;9.83;;;8.83;;
2021;SDS011;1015;49.756;6.994;2022-07-22T06:33:17;10.10;;;9.17;;
2021;SDS011;1015;49.756;6.994;2022-07-22T06:35:44;9.50;;;8.63;;
2021;SDS011;1015;49.756;6.994;2022-07-22T06:38:10;8.70;;;7.90;;
2021;SDS011;1015;49.756;6.994;2022-07-22T06:40:38;9.57;;;8.70;;
2021;SDS011;1015;49.756;6.994;2022-07-22T06:43:05;9.57;;;8.57;;
2021;SDS011;1015;49.756;6.994;2022-07-22T06:45:32;9.53;;;8.63;;
2021;SDS011;1015;49.756;6.994;2022-07-22T06:48:00;9.10;;;8.20;;
2021;SDS011;1015;49.756;6.994;2022-07-22T06:50:27;8.87;;;7.80;;
2021;SDS011;1015;49.756;6.994;2022-07-22T06:52:54;10.10;;;8.80;;
2021;SDS011;1015;49.756;6.994;2022-07-22T06:55:21;8.80;;;8.00;;
2021;SDS011;1015;49.756;6.994;2022-07-22T06:57:48;8.60;;;7.70;;
2021;SDS011;1015;49.756;6.994;2022-07-22T07:00:16;8.83;;;7.93;;
2021;SDS011;1015;49.756;6.994;2022-07-22T07:02:43;8.60;;;7.80;;
2021;SDS011;1015;49.756;6.994;2022-07-22T07:05:12;8.57;;;7.37;;
2021;SDS011;1015;49.756;6.994;2022-07-22T07:07:39;7.53;;;6.80;;
2021;SDS011;1015;49.756;6.994;2022-07-22T07:10:06;8.17;;;7.37;;
2021;SDS011;1015;49.756;6.994;2022-07-22T07:12:34;8.10;;;7.30;;
2021;SDS011;1015;49.756;6.994;2022-07-22T07:15:01;8.10;;;7.30;;
2021;SDS011;1015;49.756;6.994;2022-07-22T07:17:28;7.37;;;6.70;;
2021;SDS011;1015;49.756;6.994;2022-07-22T07:19:55;8.00;;;7.13;;
2021;SDS011;1015;49.756;6.994;2022-07-22T07:22:23;9.17;;;7.70;;
2021;SDS011;1015;49.756;6.994;2022-07-22T07:24:50;8.13;;;7.30;;
2021;SDS011;1015;49.756;6.994;2022-07-22T07:27:17;8.53;;;7.73;;
2021;SDS011;1015;49.756;6.994;2022-07-22T07:29:44;8.00;;;7.20;;
2021;SDS011;1015;49.756;6.994;2022-07-22T07:32:11;9.60;;;8.60;;
2021;SDS011;1015;49.756;6.994;2022-07-22T07:34:38;8.50;;;7.70;;
2021;SDS011;1015;49.756;6.994;2022-07-22T07:37:05;9.00;;;7.83;;
2021;SDS011;1015;49.756;6.994;2022-07-22T07:39:34;8.87;;;7.80;;
2021;SDS011;1015;49.756;6.994;2022-07-22T07:42:01;8.60;;;7.80;;
2021;SDS011;1015;49.756;6.994;2022-07-22T07:44:29;9.87;;;7.90;;
2021;SDS011;1015;49.756;6.994;2022-07-22T07:46:56;9.80;;;8.90;;
2021;SDS011;1015;49.756;6.994;2022-07-22T07:49:23;8.93;;;7.93;;
2021;SDS011;1015;49.756;6.994;2022-07-22T07:51:50;9.60;;;8.70;;
2021;SDS011;1015;49.756;6.994;2022-07-22T07:54:18;10.30;;;9.30;;
2021;SDS011;1015;49.756;6.994;2022-07-22T07:56:47;8.77;;;7.97;;
2021;SDS011;1015;49.756;6.994;2022-07-22T07:59:14;9.67;;;7.90;;
2021;SDS011;1015;49.756;6.994;2022-07-22T08:01:41;10.30;;;8.63;;
2021;SDS011;1015;49.756;6.994;2022-07-22T08:04:08;8.43;;;7.57;;
2021;SDS011;1015;49.756;6.994;2022-07-22T08:06:36;7.97;;;7.23;;
2021;SDS011;1015;49.756;6.994;2022-07-22T08:09:03;8.03;;;7.33;;
2021;SDS011;1015;49.756;6.994;2022-07-22T08:11:30;9.03;;;8.20;;
2021;SDS011;1015;49.756;6.994;2022-07-22T08:13:59;9.37;;;8.40;;
2021;SDS011;1015;49.756;6.994;2022-07-22T08:16:26;8.63;;;7.87;;
2021;SDS011;1015;49.756;6.994;2022-07-22T08:18:53;8.17;;;7.37;;
2021;SDS011;1015;49.756;6.994;2022-07-22T08:21:20;8.70;;;7.90;;
2021;SDS011;1015;49.756;6.994;2022-07-22T08:23:47;8.97;;;8.17;;
2021;SDS011;1015;49.756;6.994;2022-07-22T08:26:14;8.40;;;7.57;;
2021;SDS011;1015;49.756;6.994;2022-07-22T08:28:41;8.10;;;7.40;;
2021;SDS011;1015;49.756;6.994;2022-07-22T08:31:09;8.00;;;7.30;;
2021;SDS011;1015;49.756;6.994;2022-07-22T08:33:36;8.13;;;7.33;;
2021;SDS011;1015;49.756;6.994;2022-07-22T08:36:03;7.63;;;6.97;;
2021;SDS011;1015;49.756;6.994;2022-07-22T08:38:31;8.10;;;7.40;;
2021;SDS011;1015;49.756;6.994;2022-07-22T08:40:58;7.50;;;6.80;;
2021;SDS011;1015;49.756;6.994;2022-07-22T08:43:27;8.30;;;7.43;;
2021;SDS011;1015;49.756;6.994;2022-07-22T08:45:55;8.60;;;7.80;;
2021;SDS011;1015;49.756;6.994;2022-07-22T08:48:24;7.47;;;6.40;;
2021;SDS011;1015;49.756;6.994;2022-07-22T08:50:51;6.97;;;6.37;;
2021;SDS011;1015;49.756;6.994;2022-07-22T08:53:18;7.67;;;6.97;;
2021;SDS011;1015;49.756;6.994;2022-07-22T08:55:46;7.97;;;7.17;;
2021;SDS011;1015;49.756;6.994;2022-07-22T08:58:14;6.73;;;6.13;;
2021;SDS011;1015;49.756;6.994;2022-07-22T09:00:42;7.23;;;6.63;;
2021;SDS011;1015;49.756;6.994;2022-07-22T09:03:19;6.73;;;6.20;;
2021;SDS011;1015;49.756;6.994;2022-07-22T09:05:48;7.03;;;6.37;;
2021;SDS011;1015;49.756;6.994;2022-07-22T09:08:16;7.20;;;6.60;;
2021;SDS011;1015;49.756;6.994;2022-07-22T09:10:43;7.30;;;6.63;;
2021;SDS011;1015;49.756;6.994;2022-07-22T09:13:11;6.87;;;6.37;;
2021;SDS011;1015;49.756;6.994;2022-07-22T09:15:45;7.40;;;6.77;;
2021;SDS011;1015;49.756;6.994;2022-07-22T09:18:13;7.33;;;6.63;;
2021;SDS011;1015;49.756;6.994;2022-07-22T09:20:40;7.00;;;6.50;;
2021;SDS011;1015;49.756;6.994;2022-07-22T09:23:11;7.00;;;6.40;;
2021;SDS011;1015;49.756;6.994;2022-07-22T09:25:39;7.00;;;6.40;;
2021;SDS011;1015;49.756;6.994;2022-07-22T09:28:11;6.97;;;6.40;;
2021;SDS011;1015;49.756;6.994;2022-07-22T09:30:47;7.10;;;6.50;;
2021;SDS011;1015;49.756;6.994;2022-07-22T09:33:15;6.60;;;6.00;;
2021;SDS011;1015;49.756;6.994;2022-07-22T09:35:43;7.00;;;6.40;;
2021;SDS011;1015;49.756;6.994;2022-07-22T09:38:12;7.17;;;6.50;;
2021;SDS011;1015;49.756;6.994;2022-07-22T09:40:41;7.63;;;7.00;;
2021;SDS011;1015;49.756;6.994;2022-07-22T09:43:10;7.03;;;6.33;;
2021;SDS011;1015;49.756;6.994;2022-07-22T09:45:44;6.40;;;5.90;;
2021;SDS011;1015;49.756;6.994;2022-07-22T09:48:13;7.10;;;6.50;;
2021;SDS011;1015;49.756;6.994;2022-07-22T09:50:43;6.80;;;6.20;;
2021;SDS011;1015;49.756;6.994;2022-07-22T09:53:12;6.77;;;6.17;;
2021;SDS011;1015;49.756;6.994;2022-07-22T09:55:40;7.03;;;6.53;;
2021;SDS011;1015;49.756;6.994;2022-07-22T09:58:07;7.00;;;6.40;;
2021;SDS011;1015;49.756;6.994;2022-07-22T10:00:34;6.80;;;6.30;;
2021;SDS011;1015;49.756;6.994;2022-07-22T10:03:03;7.90;;;7.17;;
2021;SDS011;1015;49.756;6.994;2022-07-22T10:05:33;7.00;;;6.50;;
2021;SDS011;1015;49.756;6.994;2022-07-22T10:08:02;7.00;;;6.40;;
2021;SDS011;1015;49.756;6.994;2022-07-22T10:10:32;7.60;;;7.00;;
2021;SDS011;1015;49.756;6.994;2022-07-22T10:13:01;6.73;;;6.23;;
2021;SDS011;1015;49.756;6.994;2022-07-22T10:15:30;7.03;;;6.50;;
2021;SDS011;1015;49.756;6.994;2022-07-22T10:17:59;6.90;;;6.30;;
2021;SDS011;1015;49.756;6.994;2022-07-22T10:20:29;7.30;;;6.70;;
2021;SDS011;1015;49.756;6.994;2022-07-22T10:22:57;7.23;;;6.53;;
2021;SDS011;1015;49.756;6.994;2022-07-22T10:25:25;7.67;;;6.97;;
2021;SDS011;1015;49.756;6.994;2022-07-22T10:27:56;7.23;;;6.53;;
2021;SDS011;1015;49.756;6.994;2022-07-22T10:30:24;7.20;;;6.70;;
2021;SDS011;1015;49.756;6.994;2022-07-22T10:33:02;7.00;;;6.40;;
2021;SDS011;1015;49.756;6.994;2022-07-22T10:35:31;7.33;;;6.67;;
2021;SDS011;1015;49.756;6.994;2022-07-22T10:38:01;7.20;;;6.60;;
2021;SDS011;1015;49.756;6.994;2022-07-22T10:40:31;7.07;;;6.40;;
2021;SDS011;1015;49.756;6.994;2022-07-22T10:43:13;11.73;;;6.57;;
2021;SDS011;1015;49.756;6.994;2022-07-22T10:45:43;7.00;;;6.40;;
2021;SDS011;1015;49.756;6.994;2022-07-22T10:48:13;7.17;;;6.50;;
2021;SDS011;1015;49.756;6.994;2022-07-22T10:50:52;6.70;;;6.20;;
2021;SDS011;1015;49.756;6.994;2022-07-22T10:53:38;7.53;;;6.93;;
2021;SDS011;1015;49.756;6.994;2022-07-22T10:56:26;7.33;;;6.60;;
2021;SDS011;1015;49.756;6.994;2022-07-22T10:58:57;7.80;;;7.10;;
2021;SDS011;1015;49.756;6.994;2022-07-22T11:01:35;7.27;;;6.67;;
2021;SDS011;1015;49.756;6.994;2022-07-22T11:04:07;6.83;;;6.33;;
2021;SDS011;1015;49.756;6.994;2022-07-22T11:06:36;7.00;;;6.50;;
2021;SDS011;1015;49.756;6.994;2022-07-22T11:09:05;6.63;;;6.13;;
2021;SDS011;1015;49.756;6.994;2022-07-22T11:11:35;6.30;;;5.90;;
2021;SDS011;1015;49.756;6.994;2022-07-22T11:14:18;7.10;;;6.60;;
2021;SDS011;1015;49.756;6.994;2022-07-22T11:16:50;7.30;;;6.70;;
2021;SDS011;1015;49.756;6.994;2022-07-22T11:19:21;7.30;;;6.70;;
2021;SDS011;1015;49.756;6.994;2022-07-22T11:21:50;6.90;;;6.30;;
2021;SDS011;1015;49.756;6.994;2022-07-22T11:24:19;7.17;;;6.47;;
2021;SDS011;1015;49.756;6.994;2022-07-22T11:26:47;7.90;;;7.20;;
2021;SDS011;1015;49.756;6.994;2022-07-22T11:29:18;7.33;;;6.73;;
2021;SDS011;1015;49.756;6.994;2022-07-22T11:31:51;6.20;;;5.70;;
2021;SDS011;1015;49.756;6.994;2022-07-22T11:34:19;6.67;;;6.07;;
2021;SDS011;1015;49.756;6.994;2022-07-22T11:36:47;7.50;;;6.80;;
2021;SDS011;1015;49.756;6.994;2022-07-22T11:39:17;6.90;;;6.40;;
2021;SDS011;1015;49.756;6.994;2022-07-22T11:41:46;7.20;;;6.60;;
2021;SDS011;1015;49.756;6.994;2022-07-22T11:44:16;7.37;;;6.77;;
2021;SDS011;1015;49.756;6.994;2022-07-22T11:46:49;6.97;;;6.47;;
2021;SDS011;1015;49.756;6.994;2022-07-22T11:49:17;7.67;;;7.07;;
2021;SDS011;1015;49.756;6.994;2022-07-22T11:51:45;7.30;;;6.70;;
2021;SDS011;1015;49.756;6.994;2022-07-22T11:54:13;7.50;;;6.90;;
2021;SDS011;1015;49.756;6.994;2022-07-22T11:56:40;7.10;;;6.50;;
2021;SDS011;1015;49.756;6.994;2022-07-22T11:59:07;7.20;;;6.60;;
2021;SDS011;1015;49.756;6.994;2022-07-22T12:01:40;7.40;;;6.80;;
2021;SDS011;1015;49.756;6.994;2022-07-22T12:04:08;6.90;;;6.40;;
2021;SDS011;1015;49.756;6.994;2022-07-22T12:06:36;6.23;;;5.73;;
2021;SDS011;1015;49.756;6.994;2022-07-22T12:09:06;6.43;;;5.83;;
2021;SDS011;1015;49.756;6.994;2022-07-22T12:11:35;6.73;;;6.13;;
2021;SDS011;1015;49.756;6.994;2022-07-22T12:14:07;6.50;;;6.00;;
2021;SDS011;1015;49.756;6.994;2022-07-22T12:16:36;6.60;;;6.00;;
2021;SDS011;1015;49.756;6.994;2022-07-22T12:19:06;6.40;;;5.90;;
2021;SDS011;1015;49.756;6.994;2022-07-22T12:21:34;6.57;;;6.07;;
2021;SDS011;1015;49.756;6.994;2022-07-22T12:24:03;6.83;;;6.33;;
2021;SDS011;1015;49.756;6.994;2022-07-22T12:26:43;6.70;;;6.07;;
2021;SDS011;1015;49.756;6.994;2022-07-22T12:29:12;6.67;;;6.10;;
2021;SDS011;1015;49.756;6.994;2022-07-22T12:31:43;6.57;;;6.00;;
2021;SDS011;1015;49.756;6.994;2022-07-22T12:34:13;6.70;;;6.10;;
2021;SDS011;1015;49.756;6.994;2022-07-22T12:36:42;7.00;;;6.50;;
2021;SDS011;1015;49.756;6.994;2022-07-22T12:39:12;7.23;;;6.63;;
2021;SDS011;1015;49.756;6.994;2022-07-22T12:41:47;6.77;;;6.17;;
2021;SDS011;1015;49.756;6.994;2022-07-22T12:44:16;7.63;;;7.03;;
2021;SDS011;1015;49.756;6.994;2022-07-22T12:46:44;8.00;;;7.30;;
2021;SDS011;1015;49.756;6.994;2022-07-22T12:49:14;7.60;;;7.00;;
2021;SDS011;1015;49.756;6.994;2022-07-22T12:54:31;7.30;;;6.50;;
2021;SDS011;1015;49.756;6.994;2022-07-22T12:56:58;9.77;;;7.40;;
2021;SDS011;1015;49.756;6.994;2022-07-22T12:59:25;7.87;;;7.10;;
2021;SDS011;1015;49.756;6.994;2022-07-22T13:01:52;8.00;;;7.30;;
2021;SDS011;1015;49.756;6.994;2022-07-22T13:04:20;7.63;;;7.03;;
2021;SDS011;1015;49.756;6.994;2022-07-22T13:06:47;6.43;;;5.93;;
2021;SDS011;1015;49.756;6.994;2022-07-22T13:09:14;7.27;;;6.77;;
2021;SDS011;1015;49.756;6.994;2022-07-22T13:11:41;7.40;;;6.80;;
2021;SDS011;1015;49.756;6.994;2022-07-22T13:14:09;7.30;;;6.70;;
2021;SDS011;1015;49.756;6.994;2022-07-22T13:16:36;8.03;;;7.33;;
2021;SDS011;1015;49.756;6.994;2022-07-22T13:19:04;7.37;;;6.77;;
2021;SDS011;1015;49.756;6.994;2022-07-22T13:21:32;7.77;;;7.07;;
2021;SDS011;1015;49.756;6.994;2022-07-22T13:23:59;8.37;;;7.73;;
2021;SDS011;1015;49.756;6.994;2022-07-22T13:26:26;8.23;;;7.63;;
2021;SDS011;1015;49.756;6.994;2022-07-22T13:28:53;7.60;;;7.00;;
2021;SDS011;1015;49.756;6.994;2022-07-22T13:31:20;7.80;;;7.20;;
2021;SDS011;1015;49.756;6.994;2022-07-22T13:33:47;7.77;;;7.17;;
2021;SDS011;1015;49.756;6.994;2022-07-22T13:36:14;6.87;;;6.33;;
2021;SDS011;1015;49.756;6.994;2022-07-22T13:38:42;7.80;;;7.20;;
2021;SDS011;1015;49.756;6.994;2022-07-22T13:41:09;7.17;;;6.57;;
2021;SDS011;1015;49.756;6.994;2022-07-22T13:43:42;7.43;;;6.73;;
2021;SDS011;1015;49.756;6.994;2022-07-22T13:46:10;7.67;;;7.07;;
2021;SDS011;1015;49.756;6.994;2022-07-22T13:48:37;7.40;;;6.80;;
2021;SDS011;1015;49.756;6.994;2022-07-22T13:51:04;7.10;;;6.50;;
2021;SDS011;1015;49.756;6.994;2022-07-22T13:53:31;7.30;;;6.60;;
2021;SDS011;1015;49.756;6.994;2022-07-22T13:56:00;8.60;;;7.80;;
2021;SDS011;1015;49.756;6.994;2022-07-22T13:58:27;7.50;;;6.90;;
2021;SDS011;1015;49.756;6.994;2022-07-22T14:00:54;7.77;;;6.80;;
2021;SDS011;1015;49.756;6.994;2022-07-22T14:03:22;7.40;;;6.80;;
2021;SDS011;1015;49.756;6.994;2022-07-22T14:05:49;8.03;;;7.30;;
2021;SDS011;1015;49.756;6.994;2022-07-22T14:08:17;7.60;;;7.00;;
2021;SDS011;1015;49.756;6.994;2022-07-22T14:10:44;8.50;;;7.37;;
2021;SDS011;1015;49.756;6.994;2022-07-22T14:13:13;7.80;;;7.20;;
2021;SDS011;1015;49.756;6.994;2022-07-22T14:15:40;9.80;;;8.23;;
2021;SDS011;1015;49.756;6.994;2022-07-22T14:18:07;8.50;;;7.80;;
2021;SDS011;1015;49.756;6.994;2022-07-22T14:20:34;8.77;;;8.00;;
2021;SDS011;1015;49.756;6.994;2022-07-22T14:23:02;8.83;;;8.07;;
2021;SDS011;1015;49.756;6.994;2022-07-22T14:25:30;8.83;;;7.93;;
2021;SDS011;1015;49.756;6.994;2022-07-22T14:27:58;9.37;;;8.63;;
2021;SDS011;1015;49.756;6.994;2022-07-22T14:30:26;8.40;;;7.70;;
2021;SDS011;1015;49.756;6.994;2022-07-22T14:32:54;8.43;;;7.83;;
2021;SDS011;1015;49.756;6.994;2022-07-22T14:35:21;8.13;;;7.43;;
2021;SDS011;1015;49.756;6.994;2022-07-22T14:37:48;8.53;;;7.93;;
2021;SDS011;1015;49.756;6.994;2022-07-22T14:40:16;8.80;;;8.03;;
2021;SDS011;1015;49.756;6.994;2022-07-22T14:42:43;8.13;;;7.40;;
2021;SDS011;1015;49.756;6.994;2022-07-22T14:45:11;8.20;;;7.60;;
2021;SDS011;1015;49.756;6.994;2022-07-22T14:47:39;7.77;;;7.17;;
2021;SDS011;1015;49.756;6.994;2022-07-22T14:50:07;8.60;;;8.00;;
2021;SDS011;1015;49.756;6.994;2022-07-22T14:52:34;7.73;;;7.13;;
2021;SDS011;1015;49.756;6.994;2022-07-22T14:55:01;8.10;;;7.50;;
2021;SDS011;1015;49.756;6.994;2022-07-22T14:57:28;7.10;;;6.60;;
2021;SDS011;1015;49.756;6.994;2022-07-22T14:59:55;8.20;;;7.50;;
2021;SDS011;1015;49.756;6.994;2022-07-22T15:02:22;8.60;;;7.90;;
2021;SDS011;1015;49.756;6.994;2022-07-22T15:04:51;8.40;;;7.80;;
2021;SDS011;1015;49.756;6.994;2022-07-22T15:07:18;8.20;;;7.50;;
2021;SDS011;1015;49.756;6.994;2022-07-22T15:09:45;8.17;;;7.57;;
2021;SDS011;1015;49.756;6.994;2022-07-22T15:12:12;8.40;;;7.60;;